Time;durP1;ratioP1;P1;durP2;ratioP2;P2;SDS_P1;SDS_P2;PMS_P1;PMS_P2;Temp;Humidity;BMP_temperature;BMP_pressure;BME280_temperature;BME280_humidity;BME280_pressure;Samples;Min_cycle;Max_cycle;Signal;HPM_P1;HPM_P2
2021/03/30 00:01:32;;;;;;;9.38;4.78;;;;;;;3.85;70.60;98234.91;5011533;28;20084;-65
2021/03/30 00:03:58;;;;;;;8.40;5.10;;;;;;;3.86;71.26;98239.16;5014726;28;20499;-65
2021/03/30 00:06:24;;;;;;;12.70;5.82;;;;;;;3.71;71.47;98234.91;5014192;28;20056;-65
2021/03/30 00:08:51;;;;;;;11.75;5.57;;;;;;;3.62;72.51;98228.50;5015634;28;20077;-65
2021/03/30 00:11:18;;;;;;;10.10;5.47;;;;;;;3.33;72.58;98236.13;5012777;28;20042;-65
2021/03/30 00:13:44;;;;;;;16.23;5.75;;;;;;;3.56;72.53;98231.44;5013576;28;20092;-65
2021/03/30 00:16:11;;;;;;;10.02;5.68;;;;;;;3.56;72.22;98228.88;5014774;28;20088;-65
2021/03/30 00:18:37;;;;;;;13.10;5.47;;;;;;;3.29;73.65;98224.31;5016578;28;20062;-65
2021/03/30 00:21:04;;;;;;;9.60;5.87;;;;;;;3.51;72.13;98233.44;5011333;28;20394;-65
2021/03/30 00:23:30;;;;;;;12.15;6.53;;;;;;;3.44;71.96;98217.50;5013636;28;24102;-65
2021/03/30 00:25:59;;;;;;;23.13;6.93;;;;;;;3.62;71.38;98229.34;5012914;28;20038;-65
2021/03/30 00:28:25;;;;;;;15.05;6.68;;;;;;;3.47;73.27;98227.59;5010043;28;20048;-65
2021/03/30 00:30:52;;;;;;;17.23;7.10;;;;;;;3.55;71.86;98227.19;5016551;28;20041;-65
2021/03/30 00:33:18;;;;;;;10.27;6.25;;;;;;;3.62;71.18;98219.03;5012550;28;20068;-65
2021/03/30 00:35:44;;;;;;;10.52;5.88;;;;;;;3.37;72.46;98217.00;5014297;28;20566;-65
2021/03/30 00:38:11;;;;;;;13.88;5.63;;;;;;;3.37;72.21;98224.75;5017570;28;20555;-65
2021/03/30 00:40:38;;;;;;;10.27;6.10;;;;;;;3.44;72.53;98227.78;5007405;28;21046;-65
2021/03/30 00:43:05;;;;;;;11.30;6.65;;;;;;;3.26;72.63;98237.38;5005892;28;20062;-65
2021/03/30 00:45:34;;;;;;;11.50;6.00;;;;;;;3.40;72.02;98227.13;5015979;28;20045;-65
2021/03/30 00:48:00;;;;;;;17.67;5.90;;;;;;;3.20;72.94;98230.00;5003818;28;20044;-65
2021/03/30 00:50:36;;;;;;;12.07;5.32;;;;;;;3.04;72.72;98232.56;5008065;28;20470;-65
2021/03/30 00:53:33;;;;;;;9.40;5.47;;;;;;;2.86;73.68;98224.09;5015380;28;20464;-65
2021/03/30 00:56:20;;;;;;;10.27;5.53;;;;;;;2.98;73.42;98228.56;4999561;28;20375;-66
2021/03/30 00:58:48;;;;;;;7.65;5.47;;;;;;;3.04;72.97;98228.25;5021405;28;20104;-64
2021/03/30 01:01:14;;;;;;;12.05;6.60;;;;;;;3.09;73.10;98229.72;5008236;28;20057;-65
2021/03/30 01:03:40;;;;;;;10.35;5.70;;;;;;;2.93;73.05;98227.16;5013203;28;20049;-65
2021/03/30 01:06:08;;;;;;;12.15;6.82;;;;;;;2.54;75.42;98226.63;5028411;28;20557;-65
2021/03/30 01:09:08;;;;;;;11.75;5.80;;;;;;;2.50;75.00;98222.56;5011407;28;20104;-65
2021/03/30 01:11:43;;;;;;;12.40;5.75;;;;;;;2.82;73.61;98228.56;5006762;28;20045;-65
2021/03/30 01:14:21;;;;;;;14.52;6.15;;;;;;;2.71;73.55;98224.91;5009766;28;20068;-65
2021/03/30 01:17:01;;;;;;;11.85;6.22;;;;;;;2.72;75.16;98227.41;5011526;28;20042;-65
2021/03/30 01:19:59;;;;;;;13.45;6.43;;;;;;;2.85;73.03;98230.16;5010639;28;20073;-65
2021/03/30 01:22:43;;;;;;;12.95;6.85;;;;;;;2.38;75.18;98225.78;5013792;28;20128;-65
2021/03/30 01:25:11;;;;;;;16.30;6.15;;;;;;;2.60;73.93;98216.03;5023185;28;20048;-64
2021/03/30 01:27:58;;;;;;;11.80;6.60;;;;;;;2.52;75.30;98230.19;5011059;28;20046;-65
2021/03/30 01:30:26;;;;;;;12.43;5.70;;;;;;;2.68;74.22;98230.22;5003480;28;20116;-64
2021/03/30 01:33:08;;;;;;;9.80;5.57;;;;;;;2.76;74.54;98228.91;5011579;28;20102;-65
2021/03/30 01:35:35;;;;;;;13.93;5.28;;;;;;;2.73;73.69;98228.22;5010136;28;20045;-65
2021/03/30 01:38:02;;;;;;;11.23;6.30;;;;;;;2.43;74.72;98231.47;5008449;28;20144;-64
2021/03/30 01:40:31;;;;;;;10.57;6.63;;;;;;;2.30;76.95;98225.31;5014433;28;20062;-65
2021/03/30 01:43:00;;;;;;;10.60;5.65;;;;;;;2.17;75.70;98220.81;5003824;28;20711;-64
2021/03/30 01:45:28;;;;;;;11.65;6.07;;;;;;;2.36;75.32;98223.28;5005688;28;20054;-66
2021/03/30 01:47:56;;;;;;;11.85;6.28;;;;;;;2.39;74.63;98222.28;5013535;28;20139;-66
2021/03/30 01:50:25;;;;;;;10.70;6.07;;;;;;;2.38;74.65;98211.16;5007444;28;20125;-65
2021/03/30 01:52:52;;;;;;;13.02;5.88;;;;;;;2.37;74.63;98222.38;5014262;28;20521;-66
2021/03/30 01:55:20;;;;;;;10.95;6.28;;;;;;;2.20;75.32;98214.69;5026790;28;20046;-66
2021/03/30 01:57:51;;;;;;;14.20;6.78;;;;;;;2.02;76.19;98216.47;5014463;28;20053;-66
2021/03/30 02:00:18;;;;;;;11.75;6.60;;;;;;;2.15;76.44;98211.53;5012776;28;20045;-66
2021/03/30 02:02:46;;;;;;;17.23;6.28;;;;;;;1.99;76.29;98212.31;5011290;28;20548;-66
2021/03/30 02:05:13;;;;;;;;;;;;;;;1.96;75.81;98209.88;5011342;28;20046;-66
2021/03/30 02:07:42;;;;;;;14.20;6.57;;;;;;;2.10;76.13;98188.66;5015021;28;20407;-67
2021/03/30 02:10:17;;;;;;;11.45;5.97;;;;;;;2.10;75.99;98198.09;5009840;28;20494;-66
2021/03/30 02:12:45;;;;;;;13.40;7.13;;;;;;;2.04;76.22;98200.06;5014234;28;20061;-66
2021/03/30 02:15:17;;;;;;;10.73;7.18;;;;;;;1.96;76.97;98196.22;5015286;28;20042;-66
2021/03/30 02:18:00;;;;;;;14.77;6.65;;;;;;;2.22;76.04;98202.59;5010584;28;20059;-66
2021/03/30 02:20:33;;;;;;;13.90;6.20;;;;;;;2.10;76.47;98204.06;5014670;28;20064;-66
2021/03/30 02:23:26;;;;;;;16.30;6.05;;;;;;;2.46;74.43;98199.69;5013383;28;20201;-66
2021/03/30 02:25:55;;;;;;;10.95;5.80;;;;;;;2.39;75.31;98205.13;5006501;28;20533;-66
2021/03/30 02:28:25;;;;;;;15.98;7.18;;;;;;;1.92;77.02;98204.97;5015336;28;20041;-66
2021/03/30 02:30:52;;;;;;;11.80;6.85;;;;;;;1.94;76.55;98203.16;5015764;28;20042;-66
2021/03/30 02:33:22;;;;;;;11.13;7.07;;;;;;;1.80;77.48;98201.31;5012291;28;20559;-66
2021/03/30 02:35:50;;;;;;;12.07;6.05;;;;;;;1.93;76.80;98198.94;5016163;28;20054;-66
2021/03/30 02:38:18;;;;;;;10.82;6.47;;;;;;;1.71;77.76;98201.75;5016029;28;20038;-66
2021/03/30 02:40:46;;;;;;;10.15;6.38;;;;;;;1.69;77.93;98201.81;5012330;28;20053;-66
2021/03/30 02:43:14;;;;;;;11.65;6.68;;;;;;;1.42;78.06;98209.97;5020769;28;20049;-66
2021/03/30 02:45:42;;;;;;;13.60;6.20;;;;;;;1.70;77.46;98200.91;5012243;28;20305;-66
2021/03/30 02:48:09;;;;;;;12.15;6.20;;;;;;;1.32;78.28;98201.03;5014844;28;20419;-66
2021/03/30 02:50:35;;;;;;;10.98;5.68;;;;;;;1.02;78.06;98201.59;5017789;28;20045;-64
2021/03/30 02:53:03;;;;;;;8.83;4.80;;;;;;;1.15;77.92;98206.16;5011391;28;20041;-66
2021/03/30 02:55:32;;;;;;;11.95;5.65;;;;;;;1.41;77.69;98205.72;5015086;28;20486;-66
2021/03/30 02:57:59;;;;;;;11.98;6.13;;;;;;;1.42;77.43;98207.41;5017131;28;20046;-66
2021/03/30 03:00:26;;;;;;;13.70;6.25;;;;;;;1.30;77.70;98205.41;5011315;28;20136;-66
2021/03/30 03:02:53;;;;;;;13.95;6.65;;;;;;;1.56;76.09;98206.72;5012946;28;20052;-67
2021/03/30 03:05:19;;;;;;;11.40;5.80;;;;;;;1.61;75.46;98201.38;5012710;28;20052;-67
2021/03/30 03:07:45;;;;;;;10.68;5.78;;;;;;;1.58;76.56;98206.66;5014156;28;20056;-67
2021/03/30 03:10:13;;;;;;;13.77;6.78;;;;;;;1.71;76.57;98207.69;5011384;28;20486;-67
2021/03/30 03:12:42;;;;;;;10.10;6.35;;;;;;;1.61;76.08;98209.91;5009060;28;20602;-67
2021/03/30 03:15:12;;;;;;;11.15;5.85;;;;;;;1.79;75.38;98210.72;5016467;28;20048;-67
2021/03/30 03:17:40;;;;;;;9.35;5.90;;;;;;;1.66;76.36;98213.97;5017769;28;20124;-67
2021/03/30 03:20:07;;;;;;;;;;;;;;;1.86;75.16;98212.97;5015995;28;20489;-66
2021/03/30 03:22:34;;;;;;;13.27;5.80;;;;;;;1.73;75.98;98220.47;4997072;28;19961;-67
2021/03/30 03:25:01;;;;;;;9.35;6.50;;;;;;;1.23;78.44;98214.31;5014564;28;20056;-67
2021/03/30 03:27:28;;;;;;;11.55;6.35;;;;;;;1.16;78.15;98215.47;5014056;28;20049;-66
2021/03/30 03:29:56;;;;;;;12.00;7.43;;;;;;;1.32;79.02;98208.72;5014600;28;20477;-67
2021/03/30 03:32:23;;;;;;;10.65;6.90;;;;;;;1.09;80.04;98214.13;5011166;28;20054;-67
2021/03/30 03:34:50;;;;;;;13.65;7.68;;;;;;;1.21;78.90;98211.00;5014219;28;20046;-67
2021/03/30 03:37:16;;;;;;;8.88;6.18;;;;;;;1.15;78.70;98213.84;5016240;28;20045;-69
2021/03/30 03:39:42;;;;;;;12.00;6.50;;;;;;;1.25;78.07;98212.50;5010821;28;20125;-67
2021/03/30 03:42:08;;;;;;;11.85;7.43;;;;;;;0.94;80.01;98206.22;5012037;28;20085;-67
2021/03/30 03:44:35;;;;;;;13.48;6.97;;;;;;;0.91;79.97;98210.66;5011996;28;20061;-67
2021/03/30 03:47:01;;;;;;;12.35;6.28;;;;;;;0.92;79.10;98212.34;5014620;28;20054;-66
2021/03/30 03:49:27;;;;;;;14.48;6.75;;;;;;;1.06;78.72;98216.81;5016476;28;20044;-66
2021/03/30 03:52:00;;;;;;;14.93;6.25;;;;;;;1.07;78.94;98216.75;5003403;28;20046;-67
2021/03/30 03:54:28;;;;;;;11.32;6.50;;;;;;;0.74;79.84;98209.72;5009189;28;20401;-67
2021/03/30 03:57:06;;;;;;;10.43;6.50;;;;;;;0.97;79.62;98216.38;5009030;28;20501;-67
2021/03/30 03:59:34;;;;;;;10.77;6.47;;;;;;;0.84;78.79;98197.28;5013228;28;20375;-67
2021/03/30 04:02:09;;;;;;;;;;;;;;;0.77;79.79;98209.56;5012511;28;20041;-66
2021/03/30 04:04:43;;;;;;;9.95;6.78;;;;;;;1.01;79.36;98209.34;5009082;28;19936;-67
2021/03/30 04:07:15;;;;;;;14.05;6.72;;;;;;;0.77;79.60;98211.31;5010824;28;20377;-66
2021/03/30 04:09:44;;;;;;;10.43;6.15;;;;;;;0.71;79.32;98214.16;5003775;28;20039;-66
2021/03/30 04:12:11;;;;;;;12.55;6.57;;;;;;;0.78;79.26;98218.94;5014235;28;20042;-66
2021/03/30 04:14:37;;;;;;;11.02;5.65;;;;;;;0.76;79.76;98207.06;5009741;28;20460;-66
2021/03/30 04:17:04;;;;;;;12.88;6.80;;;;;;;0.62;80.55;98224.81;5012489;28;20502;-66
2021/03/30 04:19:30;;;;;;;13.95;6.75;;;;;;;0.79;79.85;98217.19;5005773;28;20044;-66
2021/03/30 04:21:59;;;;;;;14.10;6.55;;;;;;;0.64;80.53;98223.03;5003800;28;20049;-67
2021/03/30 04:24:25;;;;;;;12.15;6.68;;;;;;;0.92;80.38;98215.72;5004873;28;20149;-67
2021/03/30 04:26:52;;;;;;;13.10;6.43;;;;;;;0.36;80.39;98207.13;5001713;28;20655;-68
2021/03/30 04:29:19;;;;;;;13.00;6.70;;;;;;;0.64;80.49;98212.78;5005837;28;20046;-67
2021/03/30 04:31:45;;;;;;;17.70;7.20;;;;;;;0.73;79.47;98202.09;5013902;28;20120;-67
2021/03/30 04:34:13;;;;;;;13.48;6.90;;;;;;;0.82;79.71;98215.31;5006103;28;20042;-67
2021/03/30 04:36:39;;;;;;;14.40;7.30;;;;;;;0.57;81.42;98225.84;5007214;28;20049;-67
2021/03/30 04:39:06;;;;;;;15.25;7.28;;;;;;;0.81;80.56;98226.47;5011794;28;20080;-66
2021/03/30 04:41:32;;;;;;;15.88;6.95;;;;;;;0.84;79.63;98233.19;5006289;28;20145;-67
2021/03/30 04:43:58;;;;;;;15.77;8.35;;;;;;;0.69;80.87;98232.16;5015280;28;20456;-67
2021/03/30 04:46:24;;;;;;;20.17;7.88;;;;;;;0.94;79.79;98229.31;5010036;28;20536;-66
2021/03/30 04:48:50;;;;;;;16.73;7.20;;;;;;;1.09;79.17;98235.47;5012193;28;20118;-66
2021/03/30 04:51:17;;;;;;;14.68;8.00;;;;;;;1.09;78.75;98239.78;5011628;28;20056;-66
2021/03/30 04:53:43;;;;;;;24.50;7.80;;;;;;;1.13;78.46;98218.22;5011884;28;20128;-66
2021/03/30 04:56:09;;;;;;;34.17;8.52;;;;;;;0.95;78.94;98225.88;5012726;28;20409;-66
2021/03/30 04:58:35;;;;;;;20.63;8.40;;;;;;;0.94;79.45;98231.88;5013500;28;20041;-67
2021/03/30 05:01:02;;;;;;;17.60;7.82;;;;;;;1.14;79.36;98232.69;5010833;28;20136;-66
2021/03/30 05:03:29;;;;;;;18.67;9.13;;;;;;;1.10;79.41;98239.72;5011762;28;20084;-67
2021/03/30 05:05:55;;;;;;;21.80;9.57;;;;;;;1.22;80.00;98245.97;5015169;28;20120;-67
2021/03/30 05:08:21;;;;;;;16.40;7.93;;;;;;;1.26;79.24;98238.97;5008368;28;20117;-66
2021/03/30 05:10:51;;;;;;;16.70;9.55;;;;;;;0.85;80.02;98242.56;5011578;28;20033;-66
2021/03/30 05:13:17;;;;;;;14.77;7.57;;;;;;;0.85;80.32;98241.72;5009615;28;20405;-67
2021/03/30 05:15:44;;;;;;;15.18;7.68;;;;;;;1.02;79.93;98249.47;5010413;28;20042;-66
2021/03/30 05:18:10;;;;;;;15.73;7.82;;;;;;;1.02;80.42;98239.22;5013469;28;20137;-67
2021/03/30 05:20:39;;;;;;;19.13;7.32;;;;;;;0.99;80.55;98247.03;5010650;28;20064;-66
2021/03/30 05:23:05;;;;;;;15.43;7.30;;;;;;;1.25;79.91;98250.13;5009800;28;20061;-67
2021/03/30 05:25:32;;;;;;;17.00;9.10;;;;;;;1.20;79.11;98258.06;5011246;28;20054;-67
2021/03/30 05:27:59;;;;;;;18.48;8.02;;;;;;;1.32;79.16;98257.47;5007059;28;20089;-68
2021/03/30 05:30:26;;;;;;;13.93;8.07;;;;;;;1.40;78.35;98255.41;5016479;28;20129;-65
2021/03/30 05:32:52;;;;;;;12.95;7.07;;;;;;;1.70;77.42;98252.25;5011328;28;20128;-65
2021/03/30 05:35:18;;;;;;;14.52;8.15;;;;;;;1.61;77.78;98242.44;5011427;28;20037;-66
2021/03/30 05:37:44;;;;;;;14.93;7.28;;;;;;;1.59;77.66;98254.53;5016740;28;20069;-65
2021/03/30 05:40:14;;;;;;;12.73;7.88;;;;;;;2.00;77.04;98252.47;5008805;28;20041;-66
2021/03/30 05:42:41;;;;;;;18.13;7.72;;;;;;;2.14;77.12;98250.94;5011403;28;20442;-66
2021/03/30 05:45:11;;;;;;;15.30;8.10;;;;;;;2.08;77.25;98257.25;5013488;28;20107;-66
2021/03/30 05:47:37;;;;;;;13.77;7.10;;;;;;;2.24;76.36;98257.28;5010262;28;20050;-66
2021/03/30 05:50:12;;;;;;;11.48;7.65;;;;;;;2.52;74.92;98249.03;5016282;28;20046;-66
2021/03/30 05:55:25;;;;;;;11.13;6.53;;;;;;;3.36;71.26;98256.53;5011227;28;20046;-67
2021/03/30 05:57:53;;;;;;;17.55;7.20;;;;;;;3.46;70.95;98262.84;5013143;28;20099;-66
2021/03/30 06:00:26;;;;;;;11.68;7.10;;;;;;;3.78;69.96;98262.78;5013971;28;20042;-66
2021/03/30 06:03:02;;;;;;;15.30;7.10;;;;;;;4.00;68.85;98259.81;5014237;28;20042;-67
2021/03/30 06:05:29;;;;;;;12.32;7.00;;;;;;;4.12;68.70;98252.28;5016799;28;20063;-67
2021/03/30 06:07:58;;;;;;;18.42;6.70;;;;;;;4.28;69.82;98269.34;5015308;28;20056;-66
2021/03/30 06:10:27;;;;;;;21.73;6.93;;;;;;;4.25;70.10;98269.53;5014550;28;20074;-66
2021/03/30 06:12:57;;;;;;;15.63;7.05;;;;;;;4.56;68.52;98264.31;5017768;28;20049;-67
2021/03/30 06:15:28;;;;;;;14.07;6.25;;;;;;;4.87;65.82;98268.44;5015641;28;20401;-66
2021/03/30 06:17:55;;;;;;;13.43;5.80;;;;;;;4.85;65.01;98267.72;5017892;28;20058;-67
2021/03/30 06:20:35;;;;;;;16.33;5.00;;;;;;;5.05;64.59;98280.19;5019796;28;20052;-66
2021/03/30 06:23:08;;;;;;;14.88;5.40;;;;;;;5.35;63.64;98276.63;5012168;28;20138;-67
2021/03/30 06:25:38;;;;;;;10.45;5.80;;;;;;;5.87;63.13;98278.50;5016456;28;20125;-67
2021/03/30 06:28:20;;;;;;;80.30;11.48;;;;;;;5.83;65.31;98281.38;5018420;28;20054;-67
2021/03/30 06:30:58;;;;;;;15.38;6.70;;;;;;;5.90;61.98;98283.47;5013301;28;20041;-67
2021/03/30 06:33:24;;;;;;;29.23;17.35;;;;;;;5.95;66.39;98287.53;5011821;28;20055;-67
2021/03/30 06:35:51;;;;;;;34.58;23.10;;;;;;;6.07;67.20;98294.47;5014541;28;20409;-67
2021/03/30 06:38:17;;;;;;;47.85;31.52;;;;;;;6.26;67.23;98294.09;5009489;28;20063;-67
2021/03/30 06:40:46;;;;;;;47.50;31.07;;;;;;;6.03;67.73;98283.53;5017244;28;20042;-67
2021/03/30 06:46:11;;;;;;;46.00;28.63;;;;;;;6.29;68.10;98294.72;5009825;28;20037;-67
2021/03/30 06:48:40;;;;;;;42.03;25.55;;;;;;;6.30;66.85;98290.38;5020196;28;20049;-67
2021/03/30 06:51:18;;;;;;;32.75;20.48;;;;;;;6.26;65.53;98291.50;5016359;28;20045;-67
2021/03/30 06:53:45;;;;;;;37.40;21.60;;;;;;;6.24;65.68;98299.38;5016421;28;20045;-66
2021/03/30 06:56:12;;;;;;;34.47;18.58;;;;;;;6.42;66.91;98288.75;5016897;28;20767;-66
2021/03/30 06:59:07;;;;;;;26.45;15.77;;;;;;;6.77;64.77;98294.09;5013981;28;20447;-67
2021/03/30 07:01:33;;;;;;;28.50;17.10;;;;;;;7.04;65.28;98295.75;5004696;28;20062;-67
2021/03/30 07:04:00;;;;;;;28.02;14.77;;;;;;;7.10;62.67;98288.38;5013892;28;20046;-62
2021/03/30 07:06:26;;;;;;;26.23;14.07;;;;;;;7.47;61.48;98300.50;5016730;28;20041;-66
2021/03/30 07:08:53;;;;;;;22.80;12.82;;;;;;;7.44;61.38;98288.59;5017029;28;20508;-66
2021/03/30 07:11:19;;;;;;;18.27;12.40;;;;;;;7.42;60.05;98277.50;5048820;22;20569;-76
2021/03/30 07:13:46;;;;;;;23.67;12.80;;;;;;;7.73;59.00;98278.72;5013270;28;20485;-76
2021/03/30 07:16:21;;;;;;;24.13;14.50;;;;;;;8.32;60.62;98293.41;5013912;28;20128;-76
2021/03/30 07:18:52;;;;;;;27.58;14.70;;;;;;;8.53;60.66;98292.78;5013928;28;20046;-76
2021/03/30 07:21:33;;;;;;;22.42;13.38;;;;;;;8.40;57.36;98292.84;5028954;28;20073;-79
2021/03/30 07:24:07;;;;;;;24.85;13.38;;;;;;;8.76;56.80;98294.47;5011657;28;20056;-77
2021/03/30 07:26:49;;;;;;;28.13;13.68;;;;;;;9.13;56.59;98286.41;5016396;28;20398;-77
2021/03/30 07:29:25;;;;;;;28.38;13.13;;;;;;;9.32;58.80;98297.97;5031762;28;20038;-76
2021/03/30 07:32:21;;;;;;;27.10;12.95;;;;;;;9.53;57.51;98287.66;5032950;28;20060;-76
2021/03/30 07:35:01;;;;;;;35.13;19.17;;;;;;;9.70;57.02;98286.31;5014951;28;20064;-76
2021/03/30 07:37:54;;;;;;;18.30;10.95;;;;;;;10.15;55.11;98273.09;5013895;28;20042;-78
2021/03/30 07:40:22;;;;;;;16.55;9.15;;;;;;;9.96;54.20;98273.78;5013348;28;20112;-76
2021/03/30 07:42:50;;;;;;;16.77;8.40;;;;;;;10.90;56.48;98273.78;5010370;28;20030;-76
2021/03/30 07:45:21;;;;;;;14.55;7.85;;;;;;;11.33;54.25;98270.09;5013125;28;20441;-77
2021/03/30 07:47:51;;;;;;;15.65;8.05;;;;;;;10.87;53.20;98271.47;5027833;28;20509;-76
2021/03/30 07:50:21;;;;;;;15.55;8.18;;;;;;;11.00;54.33;98274.66;5016285;28;20045;-77
2021/03/30 07:52:52;;;;;;;13.07;7.55;;;;;;;11.37;53.53;98271.50;5010284;28;20468;-77
2021/03/30 07:55:23;;;;;;;14.35;7.22;;;;;;;11.50;52.99;98282.47;5014449;28;20041;-77
2021/03/30 07:58:34;;;;;;;18.33;7.10;;;;;;;12.12;49.50;98283.06;5012477;28;20069;-76
2021/03/30 08:01:04;;;;;;;16.25;6.88;;;;;;;12.80;53.21;98284.72;5005731;28;20046;-78
2021/03/30 08:03:34;;;;;;;19.58;7.10;;;;;;;12.57;48.78;98273.78;5013815;28;21255;-77
2021/03/30 08:06:19;;;;;;;14.07;6.07;;;;;;;13.15;51.58;98276.19;5013785;28;20178;-77
2021/03/30 08:09:07;;;;;;;12.88;6.00;;;;;;;13.86;50.38;98274.66;5014497;28;20046;-77
2021/03/30 08:11:52;;;;;;;11.18;5.85;;;;;;;12.50;47.67;98283.16;5015430;28;20125;-77
2021/03/30 08:14:18;;;;;;;14.85;6.15;;;;;;;12.22;48.89;98278.66;5012262;28;20061;-77
2021/03/30 08:17:07;;;;;;;12.63;5.45;;;;;;;13.81;50.66;98263.81;5027346;28;20046;-78
2021/03/30 08:19:34;;;;;;;15.10;5.63;;;;;;;12.95;47.08;98275.47;5012189;28;20120;-77
2021/03/30 08:22:06;;;;;;;12.60;5.23;;;;;;;13.75;45.58;98272.25;5029570;28;20479;-77
2021/03/30 08:24:44;;;;;;;10.25;5.30;;;;;;;13.79;47.33;98276.22;5009535;28;20048;-73
2021/03/30 08:27:30;;;;;;;10.77;5.20;;;;;;;14.43;44.75;98275.13;5007257;28;20049;-77
2021/03/30 08:29:59;;;;;;;14.88;5.93;;;;;;;14.45;42.16;98267.06;5026539;28;20501;-76
2021/03/30 08:32:29;;;;;;;13.82;4.82;;;;;;;14.50;41.83;98277.09;5012155;28;20536;-77
2021/03/30 08:34:55;;;;;;;9.70;5.43;;;;;;;14.56;46.02;98266.88;5011027;28;20042;-77
2021/03/30 08:37:22;;;;;;;8.43;4.47;;;;;;;14.78;41.80;98273.38;5027475;28;20108;-77
2021/03/30 08:39:49;;;;;;;11.30;4.90;;;;;;;15.15;40.23;98261.72;5012928;28;20641;-77
2021/03/30 08:42:17;;;;;;;14.07;5.15;;;;;;;16.18;39.52;98274.56;5009324;28;20042;-77
2021/03/30 08:44:45;;;;;;;7.82;4.75;;;;;;;16.29;39.67;98276.84;5022225;28;20727;-77
2021/03/30 08:47:37;;;;;;;8.35;4.88;;;;;;;17.45;40.96;98282.63;5008865;28;20037;-77
2021/03/30 08:50:12;;;;;;;5.88;4.35;;;;;;;17.44;38.78;98279.16;5009894;28;20065;-77
2021/03/30 08:52:38;;;;;;;10.32;4.38;;;;;;;17.53;38.92;98285.22;5027282;28;20080;-77
2021/03/30 08:55:05;;;;;;;8.27;4.60;;;;;;;17.43;40.69;98279.34;5010515;28;20046;-78
2021/03/30 08:57:34;;;;;;;10.57;4.50;;;;;;;18.23;38.64;98270.25;5009217;28;20054;-78
2021/03/30 09:00:04;;;;;;;6.07;4.35;;;;;;;18.08;36.54;98278.94;5006998;28;20034;-76
2021/03/30 09:02:31;;;;;;;8.98;4.35;;;;;;;18.64;37.53;98280.41;5012425;28;20542;-76
2021/03/30 09:04:58;;;;;;;7.13;4.18;;;;;;;18.81;38.40;98279.25;5024265;28;20049;-75
2021/03/30 09:07:25;;;;;;;8.30;4.50;;;;;;;19.58;37.47;98275.34;5009323;28;20073;-75
2021/03/30 09:10:04;;;;;;;6.43;4.38;;;;;;;18.15;37.11;98279.03;5025301;28;20041;-76
2021/03/30 09:12:30;;;;;;;11.57;5.43;;;;;;;19.19;37.73;98270.41;5008940;28;20454;-76
2021/03/30 09:15:01;;;;;;;9.68;4.38;;;;;;;19.70;38.32;98273.03;5012493;28;20042;-75
2021/03/30 09:17:28;;;;;;;6.82;4.82;;;;;;;20.62;36.79;98266.13;5011629;28;20564;-75
2021/03/30 09:20:17;;;;;;;9.90;4.60;;;;;;;20.53;32.97;98274.16;5009826;28;20038;-77
2021/03/30 09:22:49;;;;;;;8.50;4.75;;;;;;;21.86;32.40;98266.00;5014236;28;20101;-75
2021/03/30 09:27:46;;;;;;;10.70;4.30;;;;;;;27.19;24.78;98273.72;5025998;28;20054;-76
2021/03/30 09:30:21;;;;;;;10.52;4.72;;;;;;;30.19;20.21;98272.13;5006903;28;20046;-77
2021/03/30 09:32:49;;;;;;;7.93;4.70;;;;;;;27.20;23.44;98270.00;5009012;28;20065;-76
2021/03/30 09:35:28;;;;;;;9.60;5.00;;;;;;;25.80;24.97;98269.69;5023720;28;20054;-76
2021/03/30 09:37:57;;;;;;;6.97;4.25;;;;;;;29.05;23.68;98271.19;5023943;28;20383;-76
2021/03/30 09:40:29;;;;;;;11.25;4.60;;;;;;;30.74;22.04;98270.09;5010041;28;20049;-76
2021/03/30 09:42:56;;;;;;;9.13;4.38;;;;;;;30.04;20.79;98267.44;5027785;28;20046;-76
2021/03/30 09:45:26;;;;;;;8.68;4.55;;;;;;;30.08;21.90;98265.06;5024404;28;20514;-78
2021/03/30 09:47:53;;;;;;;13.40;4.57;;;;;;;30.54;19.44;98260.00;5004116;28;20045;-77
2021/03/30 09:50:21;;;;;;;11.48;4.82;;;;;;;32.56;18.09;98273.75;5025689;28;20046;-77
2021/03/30 09:52:49;;;;;;;10.55;4.55;;;;;;;31.54;17.79;98261.00;5010547;28;20050;-77
2021/03/30 09:55:30;;;;;;;10.65;4.93;;;;;;;29.91;18.54;98258.97;5023533;28;20104;-76
2021/03/30 09:58:04;;;;;;;12.30;5.25;;;;;;;30.35;18.08;98270.38;5004867;28;20057;-77
2021/03/30 10:00:32;;;;;;;8.95;4.85;;;;;;;31.49;19.12;98255.63;5021970;28;20038;-76
2021/03/30 10:03:00;;;;;;;10.18;5.20;;;;;;;30.07;19.92;98263.41;5009260;28;20042;-76
2021/03/30 10:05:41;;;;;;;11.95;5.63;;;;;;;32.13;16.91;98254.34;5022689;28;20123;-76
2021/03/30 10:08:21;;;;;;;11.10;5.00;;;;;;;31.87;17.35;98243.56;5008531;28;20097;-76
2021/03/30 10:10:53;;;;;;;14.43;5.20;;;;;;;34.16;16.48;98251.06;5022026;28;20042;-76
2021/03/30 10:13:28;;;;;;;10.40;5.68;;;;;;;32.55;17.25;98243.28;4987444;28;20073;-78
2021/03/30 10:15:56;;;;;;;11.45;5.68;;;;;;;31.80;16.82;98230.38;5019912;28;20046;-76
2021/03/30 10:18:26;;;;;;;11.38;5.78;;;;;;;36.28;15.79;98237.22;5007152;28;20042;-77
2021/03/30 10:20:59;;;;;;;11.80;5.47;;;;;;;36.16;15.07;98229.59;5022620;28;20465;-77
2021/03/30 10:23:36;;;;;;;17.00;5.65;;;;;;;36.05;13.95;98233.56;5020303;28;20069;-76
2021/03/30 10:26:28;;;;;;;13.60;5.88;;;;;;;36.42;14.58;98229.13;5010201;28;20430;-76
2021/03/30 10:29:07;;;;;;;10.75;5.60;;;;;;;37.31;15.08;98229.81;5001021;28;20042;-76
2021/03/30 10:34:25;;;;;;;7.25;5.78;;;;;;;31.41;17.86;98225.47;5019025;28;20457;-77
2021/03/30 10:36:53;;;;;;;13.60;5.75;;;;;;;36.50;15.54;98216.78;5023840;28;20477;-76
2021/03/30 10:39:41;;;;;;;11.85;5.78;;;;;;;37.58;15.21;98218.09;5003906;28;20547;-76
2021/03/30 10:42:18;;;;;;;8.75;5.68;;;;;;;37.98;13.18;98215.47;4992184;28;20149;-76
2021/03/30 10:44:56;;;;;;;8.80;5.97;;;;;;;37.15;15.04;98211.16;5003959;28;20065;-76
2021/03/30 10:47:28;;;;;;;7.82;5.45;;;;;;;37.96;14.07;98206.84;5003178;28;20140;-75
2021/03/30 10:49:55;;;;;;;9.05;5.75;;;;;;;36.96;13.41;98203.13;5007582;28;20125;-75
2021/03/30 10:52:32;;;;;;;38.97;7.15;;;;;;;40.84;10.51;98202.31;5006843;28;20141;-77
2021/03/30 10:55:01;;;;;;;6.07;4.03;;;;;;;39.52;9.69;98194.81;5008666;28;20708;-76
2021/03/30 10:57:40;;;;;;;10.15;4.68;;;;;;;38.34;10.29;98187.38;5028616;28;20073;-78
2021/03/30 11:00:10;;;;;;;7.43;4.68;;;;;;;38.86;10.98;98201.16;5008872;28;20081;-77
2021/03/30 11:02:37;;;;;;;9.43;4.50;;;;;;;39.37;11.75;98187.91;5012880;28;20084;-77
2021/03/30 11:05:07;;;;;;;5.95;4.53;;;;;;;39.92;9.19;98187.25;5011847;28;20054;-77
2021/03/30 11:07:35;;;;;;;8.43;4.18;;;;;;;40.20;8.31;98187.66;5011199;28;20094;-77
2021/03/30 11:10:05;;;;;;;9.18;4.32;;;;;;;39.72;9.74;98190.66;5015022;28;20065;-77
2021/03/30 11:12:31;;;;;;;9.13;4.80;;;;;;;40.35;11.07;98182.81;5015919;28;20049;-77
2021/03/30 11:14:57;;;;;;;10.07;4.00;;;;;;;42.53;8.59;98184.50;5030765;28;20125;-77
2021/03/30 11:17:23;;;;;;;5.88;4.45;;;;;;;41.42;9.53;98191.59;5029267;28;20785;-77
2021/03/30 11:19:52;;;;;;;8.93;5.03;;;;;;;39.25;8.97;98175.75;5009103;28;20054;-77
2021/03/30 11:22:19;;;;;;;7.93;5.13;;;;;;;38.98;9.38;98174.13;5032344;28;20073;-77
2021/03/30 11:24:45;;;;;;;49.80;7.00;;;;;;;39.52;9.33;98170.31;5024711;28;20054;-77
2021/03/30 11:27:11;;;;;;;8.23;4.78;;;;;;;40.27;8.41;98171.56;5025048;28;20566;-77
2021/03/30 11:29:42;;;;;;;7.90;5.13;;;;;;;39.60;8.93;98169.50;5015949;28;20038;-79
2021/03/30 11:35:06;;;;;;;9.50;5.30;;;;;;;41.60;8.45;98182.16;5014207;28;20486;-77
2021/03/30 11:40:13;;;;;;;10.88;4.40;;;;;;;42.52;8.35;98171.16;5034582;28;20111;-82
2021/03/30 11:42:40;;;;;;;7.40;4.68;;;;;;;43.13;6.76;98157.38;5014005;28;20042;-82
2021/03/30 11:45:10;;;;;;;7.53;5.00;;;;;;;41.39;8.70;98149.38;5032944;28;20057;-81
2021/03/30 11:47:38;;;;;;;13.18;5.22;;;;;;;38.20;9.80;98141.25;5035537;28;20113;-81
2021/03/30 11:50:06;;;;;;;5.22;4.45;;;;;;;42.04;8.92;98132.47;5035662;28;20130;-83
2021/03/30 11:52:37;;;;;;;6.63;5.35;;;;;;;39.30;9.22;98125.78;5020233;28;20081;-84
2021/03/30 11:55:06;;;;;;;7.28;4.90;;;;;;;40.57;8.32;98129.88;5015779;28;20406;-78
2021/03/30 11:57:32;;;;;;;10.88;5.70;;;;;;;39.84;9.88;98109.84;4990505;28;20080;-79
2021/03/30 11:59:58;;;;;;;7.32;5.22;;;;;;;41.13;8.10;98118.72;5017264;28;20069;-78
2021/03/30 12:02:45;;;;;;;7.95;5.53;;;;;;;37.87;10.92;98112.47;5029664;28;20069;-79
2021/03/30 12:05:12;;;;;;;7.25;5.82;;;;;;;37.99;10.08;98119.22;5035459;28;20060;-79